Terminal Aerodrome Forecast
Issued by NWS Tuscon, AZ

Home | Current Version | Previous Version | Text Only | Print | Product List | Glossary On
Versions: 1 2 3 4 5 6 7 8 9 10 11 12 13
677
FTUS45 KTWC 271120
TAFTUS
TAF
KTUS 271120Z 2712/2812 14007KT P6SM SCT250
     FM271900 24013G22KT P6SM SCT080 BKN140 OVC200
     FM280200 22013KT P6SM VCSH BKN070 OVC120=

USA.gov is the U.S. government's official web portal to all federal, state and local government web resources and services.